createdAt,value
2016-07-10T00:00:27.878Z,59.02
2016-07-10T00:01:27.916Z,59.22
2016-07-10T00:02:27.931Z,59.12
2016-07-10T00:03:27.905Z,59.22
2016-07-10T00:04:27.935Z,59.02
2016-07-10T00:05:27.955Z,58.93
2016-07-10T00:06:27.943Z,59.12
2016-07-10T00:07:27.942Z,59.02
2016-07-10T00:08:27.956Z,59.02
2016-07-10T00:09:27.990Z,58.83
2016-07-10T00:10:27.999Z,58.93
2016-07-10T00:11:27.986Z,58.93
2016-07-10T00:12:27.986Z,58.93
2016-07-10T00:13:28.020Z,59.02
2016-07-10T00:14:28.036Z,59.02
2016-07-10T00:15:28.042Z,58.93
2016-07-10T00:16:28.025Z,58.93
2016-07-10T00:17:28.062Z,58.93
2016-07-10T00:18:28.055Z,58.93
2016-07-10T00:19:28.086Z,59.02
2016-07-10T00:20:28.084Z,58.83
2016-07-10T00:21:28.071Z,58.93
2016-07-10T00:22:28.109Z,58.93
2016-07-10T00:23:28.108Z,58.93
2016-07-10T00:24:28.117Z,59.02
2016-07-10T00:25:28.119Z,58.93
2016-07-10T00:26:28.116Z,58.83
2016-07-10T00:27:28.127Z,58.93
2016-07-10T00:28:28.135Z,59.02
2016-07-10T00:29:28.171Z,58.93
2016-07-10T00:30:28.154Z,59.12
2016-07-10T00:31:28.198Z,59.12
2016-07-10T00:32:28.191Z,58.83
2016-07-10T00:33:28.197Z,58.64
2016-07-10T00:34:28.188Z,58.73
2016-07-10T00:35:28.194Z,59.51
2016-07-10T00:36:28.222Z,59.02
2016-07-10T00:37:28.252Z,58.93
2016-07-10T00:38:28.220Z,58.83
2016-07-10T00:39:28.268Z,58.83
2016-07-10T00:40:28.252Z,59.31
2016-07-10T00:41:28.272Z,58.83
2016-07-10T00:42:28.275Z,58.73
2016-07-10T00:43:28.282Z,59.31
2016-07-10T00:44:28.279Z,59.22
2016-07-10T00:45:28.312Z,59.31
2016-07-10T00:46:28.323Z,58.93
2016-07-10T00:47:28.328Z,58.73
2016-07-10T00:48:28.326Z,59.31
2016-07-10T00:49:28.336Z,59.31
2016-07-10T00:50:28.366Z,59.31
2016-07-10T00:51:28.351Z,58.93
2016-07-10T00:52:28.384Z,59.31
2016-07-10T00:53:28.387Z,59.22
2016-07-10T00:54:28.412Z,59.12
2016-07-10T00:55:28.380Z,59.22
2016-07-10T00:56:28.419Z,59.41
2016-07-10T00:57:28.433Z,59.31
2016-07-10T00:58:28.438Z,59.22
2016-07-10T00:59:28.465Z,59.22
2016-07-10T01:00:28.441Z,59.31
2016-07-10T01:01:28.434Z,59.22
2016-07-10T01:02:28.448Z,58.93
2016-07-10T01:03:28.471Z,59.22
2016-07-10T01:04:28.487Z,59.22
2016-07-10T01:05:28.472Z,58.93
2016-07-10T01:06:28.513Z,59.31
2016-07-10T01:07:28.530Z,59.22
2016-07-10T01:08:28.521Z,59.22
2016-07-10T01:09:28.529Z,59.12
2016-07-10T01:10:28.542Z,59.22
2016-07-10T01:11:28.539Z,59.31
2016-07-10T01:12:28.568Z,59.22
2016-07-10T01:13:28.546Z,59.31
2016-07-10T01:14:28.554Z,59.31
2016-07-10T01:15:28.597Z,59.22
2016-07-10T01:16:28.593Z,59.22
2016-07-10T01:17:28.589Z,59.31
2016-07-10T01:18:28.592Z,59.22
2016-07-10T01:19:28.632Z,59.02
2016-07-10T01:20:28.631Z,59.19
2016-07-10T01:21:28.637Z,59.09
2016-07-10T01:22:28.657Z,59.12
2016-07-10T01:23:28.656Z,59.09
2016-07-10T01:24:28.656Z,59.02
2016-07-10T01:25:28.666Z,59.09
2016-07-10T01:26:28.678Z,59.09
2016-07-10T01:27:28.673Z,59.28
2016-07-10T01:28:28.681Z,59.22
2016-07-10T01:29:28.693Z,59.09
2016-07-10T01:30:28.722Z,59.31
2016-07-10T01:31:28.746Z,59.12
2016-07-10T01:32:28.728Z,59.19
2016-07-10T01:33:28.761Z,59.09
2016-07-10T01:34:28.757Z,59.28
2016-07-10T01:35:28.747Z,59.22
2016-07-10T01:36:28.783Z,59.22
2016-07-10T01:37:28.767Z,59.31
2016-07-10T01:38:28.782Z,59.09
2016-07-10T01:39:28.781Z,59.02
2016-07-10T01:40:28.825Z,59.09
2016-07-10T01:41:28.813Z,59.31
2016-07-10T01:42:28.830Z,59.12
2016-07-10T01:43:28.822Z,59.09
2016-07-10T01:44:28.859Z,59.22
2016-07-10T01:45:28.854Z,59.09
2016-07-10T01:46:28.857Z,59.02
2016-07-10T01:47:28.881Z,59.12
2016-07-10T01:48:28.886Z,59.22
2016-07-10T01:49:28.896Z,59.28
2016-07-10T01:50:28.906Z,59
2016-07-10T01:51:28.892Z,59.22
2016-07-10T01:52:28.903Z,59.28
2016-07-10T01:53:28.907Z,59.31
2016-07-10T01:54:28.919Z,59.19
2016-07-10T01:55:28.951Z,59.19
2016-07-10T01:56:28.966Z,59.28
2016-07-10T01:57:29.001Z,59.28
2016-07-10T01:58:28.974Z,59.28
2016-07-10T01:59:28.987Z,59.31
2016-07-10T02:00:28.972Z,59.28
2016-07-10T02:01:29.001Z,59.09
2016-07-10T02:02:29.020Z,59.19
2016-07-10T02:03:29.011Z,59.28
2016-07-10T02:04:29.019Z,59.38
2016-07-10T02:05:29.040Z,59.28
2016-07-10T02:06:29.031Z,59.19
2016-07-10T02:07:29.060Z,59.19
2016-07-10T02:08:29.056Z,59.38
2016-07-10T02:09:29.065Z,59.28
2016-07-10T02:10:29.073Z,59.19
2016-07-10T02:11:29.105Z,59.28
2016-07-10T02:12:29.120Z,59.19
2016-07-10T02:13:29.120Z,59.09
2016-07-10T02:14:29.114Z,59.19
2016-07-10T02:15:29.109Z,59.38
2016-07-10T02:16:29.149Z,59.28
2016-07-10T02:17:29.129Z,59.28
2016-07-10T02:18:29.146Z,59.09
2016-07-10T02:19:29.166Z,59.28
2016-07-10T02:20:29.164Z,59.19
2016-07-10T02:21:29.172Z,59.28
2016-07-10T02:22:29.207Z,59.19
2016-07-10T02:23:29.186Z,59.09
2016-07-10T02:24:29.188Z,59.38
2016-07-10T02:25:29.221Z,59.48
2016-07-10T02:26:29.231Z,59.19
2016-07-10T02:27:29.226Z,59.38
2016-07-10T02:28:29.256Z,59.19
2016-07-10T02:29:29.253Z,59.09
2016-07-10T02:30:29.245Z,59.19
2016-07-10T02:31:29.275Z,59.19
2016-07-10T02:32:29.293Z,59.19
2016-07-10T02:33:29.291Z,59.09
2016-07-10T02:34:29.303Z,59.19
2016-07-10T02:35:29.311Z,59.19
2016-07-10T02:36:29.333Z,59.19
2016-07-10T02:37:29.339Z,59.09
2016-07-10T02:38:29.347Z,59.19
2016-07-10T02:39:29.321Z,59.09
2016-07-10T02:40:29.365Z,59.09
2016-07-10T02:41:29.354Z,59.09
2016-07-10T02:42:29.360Z,59.38
2016-07-10T02:43:29.384Z,59
2016-07-10T02:44:29.393Z,59.28
2016-07-10T02:45:29.400Z,59.48
2016-07-10T02:46:29.407Z,59.19
2016-07-10T02:47:29.396Z,59.28
2016-07-10T02:48:29.400Z,59.09
2016-07-10T02:49:29.417Z,59.19
2016-07-10T02:50:29.435Z,59.38
2016-07-10T02:51:29.466Z,59.38
2016-07-10T02:52:29.471Z,59.19
2016-07-10T02:53:29.502Z,59.09
2016-07-10T02:54:29.480Z,59.19
2016-07-10T02:55:29.502Z,59.19
2016-07-10T02:56:29.487Z,59.19
2016-07-10T02:57:29.500Z,59.28
2016-07-10T02:58:29.509Z,59.28
2016-07-10T02:59:29.501Z,59.09
2016-07-10T03:00:29.524Z,59.19
2016-07-10T03:01:29.542Z,59.09
2016-07-10T03:02:29.529Z,59.28
2016-07-10T03:03:29.568Z,59.09
2016-07-10T03:04:29.553Z,59.38
2016-07-10T03:05:29.579Z,59.19
2016-07-10T03:06:29.601Z,59.28
2016-07-10T03:07:29.611Z,59.38
2016-07-10T03:08:29.619Z,59.09
2016-07-10T03:09:29.615Z,59.48
2016-07-10T03:10:29.634Z,59.09
2016-07-10T03:11:29.613Z,59.09
2016-07-10T03:12:29.633Z,59.28
2016-07-10T03:13:29.641Z,59.09
2016-07-10T03:14:29.660Z,59.28
2016-07-10T03:15:29.672Z,59.28
2016-07-10T03:16:29.690Z,59.28
2016-07-10T03:17:29.695Z,59.28
2016-07-10T03:18:29.704Z,59.38
2016-07-10T03:19:29.719Z,59.19
2016-07-10T03:20:29.712Z,59.38
2016-07-10T03:21:29.733Z,59.28
2016-07-10T03:22:29.732Z,59.09
2016-07-10T03:23:29.730Z,59.28
2016-07-10T03:24:29.748Z,59.19
2016-07-10T03:25:29.772Z,59.19
2016-07-10T03:26:29.762Z,59.48
2016-07-10T03:27:29.782Z,59.28
2016-07-10T03:28:29.795Z,59.28
2016-07-10T03:29:29.795Z,59.28
2016-07-10T03:30:29.794Z,59.28
2016-07-10T03:31:29.802Z,59.19
2016-07-10T03:32:29.798Z,59.09
2016-07-10T03:33:29.829Z,59.19
2016-07-10T03:34:29.831Z,59.28
2016-07-10T03:35:29.843Z,59.19
2016-07-10T03:36:29.838Z,59.28
2016-07-10T03:37:29.880Z,59.28
2016-07-10T03:38:29.854Z,59.19
2016-07-10T03:39:29.896Z,59.19
2016-07-10T03:40:29.881Z,59.19
2016-07-10T03:41:29.879Z,59.28
2016-07-10T03:42:29.890Z,59.09
2016-07-10T03:43:29.921Z,59.38
2016-07-10T03:44:29.925Z,59.19
2016-07-10T03:45:29.912Z,59.19
2016-07-10T03:46:29.937Z,59.38
2016-07-10T03:47:29.946Z,59.38
2016-07-10T03:48:29.943Z,59.09
2016-07-10T03:49:29.977Z,59.28
2016-07-10T03:50:29.988Z,59.19
2016-07-10T03:51:29.980Z,59.19
2016-07-10T03:52:30.011Z,59.09
2016-07-10T03:53:30.010Z,59.38
2016-07-10T03:54:30.008Z,59.38
2016-07-10T03:55:30.016Z,59.19
2016-07-10T03:56:30.047Z,59.28
2016-07-10T03:57:30.035Z,59.19
2016-07-10T03:58:30.055Z,59.19
2016-07-10T03:59:30.061Z,59.19
2016-07-10T04:00:30.072Z,59.38
2016-07-10T04:01:30.081Z,59.19
2016-07-10T04:02:30.088Z,59.28
2016-07-10T04:03:30.105Z,59.38
2016-07-10T04:04:30.120Z,59.38
2016-07-10T04:05:30.127Z,59.38
2016-07-10T04:06:30.125Z,59.19
2016-07-10T04:07:30.112Z,59.28
2016-07-10T04:08:30.151Z,59.19
2016-07-10T04:09:30.140Z,59.28
2016-07-10T04:10:30.173Z,59.09
2016-07-10T04:11:30.160Z,59.19
2016-07-10T04:12:30.175Z,59.19
2016-07-10T04:13:30.189Z,59.38
2016-07-10T04:14:30.209Z,59.19
2016-07-10T04:15:30.211Z,59.28
2016-07-10T04:16:30.214Z,59.19
2016-07-10T04:17:30.235Z,59.09
2016-07-10T04:18:30.228Z,59
2016-07-10T04:19:30.239Z,59.28
2016-07-10T04:20:30.252Z,59.28
2016-07-10T04:21:30.258Z,59.19
2016-07-10T04:22:30.265Z,59.28
2016-07-10T04:23:30.254Z,59.09
2016-07-10T04:24:30.292Z,59.09
2016-07-10T04:25:30.272Z,59.28
2016-07-10T04:26:30.301Z,59
2016-07-10T04:27:30.291Z,59.19
2016-07-10T04:28:30.328Z,59
2016-07-10T04:29:30.328Z,59.09
2016-07-10T04:30:30.339Z,59.28
2016-07-10T04:31:30.358Z,59.28
2016-07-10T04:32:30.332Z,59.28
2016-07-10T04:33:30.354Z,59.28
2016-07-10T04:34:30.358Z,59.19
2016-07-10T04:35:30.390Z,59.19
2016-07-10T04:36:30.377Z,59.09
2016-07-10T04:37:30.381Z,59.19
2016-07-10T04:38:30.387Z,59.19
2016-07-10T04:39:30.410Z,59.19
2016-07-10T04:40:30.400Z,58.9
2016-07-10T04:41:30.433Z,59.28
2016-07-10T04:42:30.420Z,59.28
2016-07-10T04:43:30.467Z,58.9
2016-07-10T04:44:30.457Z,58.7
2016-07-10T04:45:30.451Z,59
2016-07-10T04:46:30.485Z,59
2016-07-10T04:47:30.574Z,58.8
2016-07-10T04:48:30.491Z,58.7
2016-07-10T04:49:30.519Z,58.9
2016-07-10T04:50:30.530Z,58.7
2016-07-10T04:51:30.533Z,58.8
2016-07-10T04:52:30.525Z,59
2016-07-10T04:53:30.549Z,58.9
2016-07-10T04:54:30.544Z,58.9
2016-07-10T04:55:30.540Z,58.9
2016-07-10T04:56:30.567Z,58.8
2016-07-10T04:57:30.582Z,58.9
2016-07-10T04:58:30.589Z,58.8
2016-07-10T04:59:30.574Z,58.8
2016-07-10T05:00:30.621Z,59.38
2016-07-10T05:01:30.619Z,58.8
2016-07-10T05:02:30.627Z,58.9
2016-07-10T05:03:30.624Z,59
2016-07-10T05:04:30.644Z,58.8
2016-07-10T05:05:30.652Z,58.8
2016-07-10T05:06:30.636Z,58.7
2016-07-10T05:07:30.681Z,58.9
2016-07-10T05:08:30.656Z,58.8
2016-07-10T05:09:30.666Z,59
2016-07-10T05:10:30.711Z,58.8
2016-07-10T05:11:30.686Z,58.61
2016-07-10T05:12:30.695Z,59
2016-07-10T05:13:30.706Z,59
2016-07-10T05:14:30.712Z,58.61
2016-07-10T05:15:30.753Z,58.83
2016-07-10T05:16:30.751Z,58.9
2016-07-10T05:17:30.772Z,59
2016-07-10T05:18:30.779Z,59.09
2016-07-10T05:19:30.767Z,58.9
2016-07-10T05:20:30.775Z,59.02
2016-07-10T05:21:30.773Z,59
2016-07-10T05:22:30.808Z,58.9
2016-07-10T05:23:30.801Z,58.9
2016-07-10T05:24:30.804Z,58.9
2016-07-10T05:25:30.831Z,58.83
2016-07-10T05:26:30.817Z,59.02
2016-07-10T05:27:30.862Z,58.9
2016-07-10T05:28:30.839Z,58.93
2016-07-10T05:29:30.847Z,58.9
2016-07-10T05:30:30.857Z,58.8
2016-07-10T05:31:30.874Z,58.93
2016-07-10T05:32:30.874Z,59
2016-07-10T05:33:30.945Z,59.12
2016-07-10T05:34:30.889Z,59.31
2016-07-10T05:35:30.929Z,58.9
2016-07-10T05:36:30.953Z,59
2016-07-10T05:37:30.934Z,59
2016-07-10T05:38:30.964Z,59
2016-07-10T05:39:31.023Z,59.22
2016-07-10T05:40:30.980Z,59.02
2016-07-10T05:41:30.985Z,59.02
2016-07-10T05:42:30.974Z,59.09
2016-07-10T05:43:30.995Z,59.09
2016-07-10T05:44:31.013Z,59.22
2016-07-10T05:45:31.015Z,59
2016-07-10T05:46:31.014Z,59.12
2016-07-10T05:47:31.023Z,59.02
2016-07-10T05:48:31.017Z,59.12
2016-07-10T05:49:31.063Z,59.02
2016-07-10T05:50:31.070Z,59.31
2016-07-10T05:51:31.047Z,59.12
2016-07-10T05:52:31.090Z,59.22
2016-07-10T05:53:31.095Z,59.12
2016-07-10T05:54:31.100Z,59.12
2016-07-10T05:55:31.114Z,59.22
2016-07-10T05:56:31.087Z,59.02
2016-07-10T05:57:31.105Z,59.02
2016-07-10T05:58:31.142Z,59.12
2016-07-10T05:59:31.139Z,58.83
2016-07-10T06:00:31.768Z,58.64
2016-07-10T06:01:31.137Z,58.64
2016-07-10T06:02:31.149Z,58.54
2016-07-10T06:03:31.159Z,58.64
2016-07-10T06:04:31.173Z,58.54
2016-07-10T06:05:31.207Z,58.93
2016-07-10T06:06:31.193Z,58.54
2016-07-10T06:07:31.192Z,58.73
2016-07-10T06:08:31.210Z,58.64
2016-07-10T06:09:31.219Z,58.64
2016-07-10T06:10:31.215Z,58.54
2016-07-10T06:11:31.261Z,58.54
2016-07-10T06:12:31.235Z,58.54
2016-07-10T06:13:31.243Z,58.64
2016-07-10T06:14:31.261Z,58.54
2016-07-10T06:15:31.296Z,58.73
2016-07-10T06:16:31.291Z,58.45
2016-07-10T06:17:31.283Z,58.35
2016-07-10T06:18:31.291Z,58.35
2016-07-10T06:19:31.330Z,58.25
2016-07-10T06:20:31.333Z,58.54
2016-07-10T06:21:31.346Z,58.54
2016-07-10T06:22:31.347Z,58.35
2016-07-10T06:23:31.362Z,58.25
2016-07-10T06:24:31.366Z,58.35
2016-07-10T06:25:31.375Z,58.54
2016-07-10T06:26:31.394Z,58.35
2016-07-10T06:27:31.395Z,58.45
2016-07-10T06:28:31.394Z,58.54
2016-07-10T06:29:31.404Z,58.45
2016-07-10T06:30:31.431Z,58.45
2016-07-10T06:31:31.409Z,58.25
2016-07-10T06:32:31.428Z,58.35
2016-07-10T06:33:31.429Z,58.35
2016-07-10T06:34:31.433Z,58.25
2016-07-10T06:35:31.463Z,58.25
2016-07-10T06:36:31.453Z,58.25
2016-07-10T06:37:31.476Z,58.45
2016-07-10T06:38:31.494Z,58.35
2016-07-10T06:39:31.480Z,58.45
2016-07-10T06:40:31.510Z,58.25
2016-07-10T06:41:31.513Z,58.45
2016-07-10T06:42:31.517Z,58.25
2016-07-10T06:43:31.539Z,58.45
2016-07-10T06:44:31.536Z,58.45
2016-07-10T06:45:31.534Z,58.35
2016-07-10T06:46:31.546Z,58.15
2016-07-10T06:47:31.556Z,58.35
2016-07-10T06:48:31.589Z,58.25
2016-07-10T06:49:31.584Z,58.25
2016-07-10T06:50:31.613Z,58.35
2016-07-10T06:51:31.618Z,58.25
2016-07-10T06:52:31.610Z,58.25
2016-07-10T06:53:31.641Z,58.35
2016-07-10T06:54:31.620Z,58.25
2016-07-10T06:55:31.626Z,58.45
2016-07-10T06:56:31.638Z,58.45
2016-07-10T06:57:31.678Z,58.45
2016-07-10T06:58:31.685Z,58.54
2016-07-10T06:59:31.681Z,58.45
2016-07-10T07:00:31.685Z,58.15
2016-07-10T07:01:31.693Z,58.64
2016-07-10T07:02:31.713Z,58.25
2016-07-10T07:03:31.723Z,58.45
2016-07-10T07:04:31.743Z,58.45
2016-07-10T07:05:31.738Z,58.54
2016-07-10T07:06:31.759Z,58.64
2016-07-10T07:07:31.746Z,58.54
2016-07-10T07:08:31.754Z,58.64
2016-07-10T07:09:31.767Z,58.54
2016-07-10T07:10:31.761Z,58.54
2016-07-10T07:11:31.804Z,58.54
2016-07-10T07:12:31.815Z,58.54
2016-07-10T07:13:31.816Z,58.45
2016-07-10T07:14:31.820Z,58.54
2016-07-10T07:15:31.820Z,58.54
2016-07-10T07:16:31.840Z,58.54
2016-07-10T07:17:31.854Z,58.54
2016-07-10T07:18:31.849Z,58.73
2016-07-10T07:19:31.854Z,58.54
2016-07-10T07:20:31.865Z,58.64
2016-07-10T07:21:31.885Z,58.54
2016-07-10T07:22:31.872Z,58.64
2016-07-10T07:23:31.885Z,58.54
2016-07-10T07:24:31.907Z,58.45
2016-07-10T07:25:31.929Z,58.54
2016-07-10T07:26:31.912Z,58.54
2016-07-10T07:27:31.956Z,58.54
2016-07-10T07:28:31.965Z,58.54
2016-07-10T07:29:31.946Z,58.54
2016-07-10T07:30:31.966Z,58.54
2016-07-10T07:31:31.979Z,58.83
2016-07-10T07:32:31.987Z,58.54
2016-07-10T07:33:31.981Z,58.54
2016-07-10T07:34:32.015Z,58.54
2016-07-10T07:35:31.993Z,58.54
2016-07-10T07:36:32.012Z,58.73
2016-07-10T07:37:32.006Z,58.54
2016-07-10T07:38:32.029Z,58.54
2016-07-10T07:39:32.057Z,58.64
2016-07-10T07:40:32.072Z,58.64
2016-07-10T07:41:32.058Z,58.54
2016-07-10T07:42:32.067Z,58.57
2016-07-10T07:43:32.083Z,58.35
2016-07-10T07:44:32.105Z,58.54
2016-07-10T07:45:32.089Z,58.54
2016-07-10T07:46:32.098Z,58.64
2016-07-10T07:47:32.126Z,58.57
2016-07-10T07:48:32.142Z,58.54
2016-07-10T07:49:32.142Z,58.64
2016-07-10T07:50:32.153Z,58.45
2016-07-10T07:51:32.141Z,58.54
2016-07-10T07:52:32.156Z,58.28
2016-07-10T07:53:32.168Z,58.54
2016-07-10T07:54:32.190Z,58.67
2016-07-10T07:55:32.200Z,58.57
2016-07-10T07:56:32.185Z,58.28
2016-07-10T07:57:32.210Z,58.47
2016-07-10T07:58:32.203Z,58.47
2016-07-10T07:59:32.247Z,58.35
2016-07-10T08:00:32.241Z,58.15
2016-07-10T08:01:32.251Z,58.18
2016-07-10T08:02:32.272Z,58.28
2016-07-10T08:03:32.259Z,58.09
2016-07-10T08:04:32.275Z,58.37
2016-07-10T08:05:32.276Z,58.37
2016-07-10T08:06:32.301Z,58.18
2016-07-10T08:07:32.305Z,57.99
2016-07-10T08:08:32.314Z,58.09
2016-07-10T08:09:32.302Z,57.99
2016-07-10T08:10:32.341Z,57.99
2016-07-10T08:11:32.331Z,58.28
2016-07-10T08:12:32.341Z,58.09
2016-07-10T08:13:32.342Z,57.99
2016-07-10T08:14:32.357Z,58.09
2016-07-10T08:15:32.358Z,58.37
2016-07-10T08:16:32.374Z,57.99
2016-07-10T08:17:32.384Z,58.28
2016-07-10T08:18:32.394Z,58.28
2016-07-10T08:19:32.401Z,58.09
2016-07-10T08:20:32.411Z,58.09
2016-07-10T08:21:32.411Z,57.99
2016-07-10T08:22:32.438Z,58.18
2016-07-10T08:23:32.444Z,58.18
2016-07-10T08:24:32.449Z,58.28
2016-07-10T08:25:32.450Z,58.18
2016-07-10T08:26:32.487Z,58.18
2016-07-10T08:27:32.498Z,58.18
2016-07-10T08:28:32.507Z,58.28
2016-07-10T08:29:32.493Z,58.28
2016-07-10T08:30:32.516Z,58.18
2016-07-10T08:31:32.543Z,58.28
2016-07-10T08:32:32.548Z,58.28
2016-07-10T08:33:32.554Z,58.18
2016-07-10T08:34:32.531Z,58.37
2016-07-10T08:35:32.538Z,58.28
2016-07-10T08:36:32.549Z,58.18
2016-07-10T08:37:32.586Z,58.37
2016-07-10T08:38:32.586Z,58.28
2016-07-10T08:39:32.608Z,58.28
2016-07-10T08:40:32.609Z,57.99
2016-07-10T08:41:32.595Z,57.89
2016-07-10T08:42:32.603Z,57.79
2016-07-10T08:43:32.643Z,57.89
2016-07-10T08:44:32.655Z,57.79
2016-07-10T08:45:32.633Z,57.79
2016-07-10T08:46:32.667Z,57.99
2016-07-10T08:47:32.679Z,57.79
2016-07-10T08:48:32.670Z,57.99
2016-07-10T08:49:32.689Z,57.79
2016-07-10T08:50:32.691Z,57.99
2016-07-10T08:51:32.707Z,57.79
2016-07-10T08:52:32.717Z,57.82
2016-07-10T08:53:32.717Z,57.92
2016-07-10T08:54:32.712Z,57.82
2016-07-10T08:55:32.753Z,57.73
2016-07-10T08:56:32.764Z,57.73
2016-07-10T08:57:32.768Z,57.89
2016-07-10T08:58:32.750Z,57.82
2016-07-10T08:59:32.794Z,57.7
2016-07-10T09:00:32.771Z,57.51
2016-07-10T09:01:32.810Z,57.51
2016-07-10T09:02:32.808Z,57.51
2016-07-10T09:03:32.806Z,57.54
2016-07-10T09:04:32.838Z,57.41
2016-07-10T09:05:32.838Z,57.41
2016-07-10T09:06:32.847Z,57.31
2016-07-10T09:07:32.865Z,57.6
2016-07-10T09:08:32.841Z,57.54
2016-07-10T09:09:32.880Z,57.41
2016-07-10T09:10:32.896Z,57.31
2016-07-10T09:11:32.887Z,57.15
2016-07-10T09:12:32.903Z,57.34
2016-07-10T09:13:32.889Z,57.44
2016-07-10T09:14:32.901Z,57.54
2016-07-10T09:15:32.924Z,57.34
2016-07-10T09:16:32.949Z,57.63
2016-07-10T09:17:32.925Z,57.54
2016-07-10T09:18:32.967Z,57.34
2016-07-10T09:19:32.979Z,57.44
2016-07-10T09:20:32.964Z,57.44
2016-07-10T09:21:32.996Z,57.44
2016-07-10T09:22:32.971Z,57.15
2016-07-10T09:23:32.991Z,57.54
2016-07-10T09:24:33.020Z,57.63
2016-07-10T09:25:33.010Z,57.15
2016-07-10T09:26:33.029Z,57.15
2016-07-10T09:27:33.031Z,57.24
2016-07-10T09:28:33.046Z,57.15
2016-07-10T09:29:33.038Z,57.05
2016-07-10T09:30:33.054Z,57.15
2016-07-10T09:31:33.053Z,57.05
2016-07-10T09:32:33.095Z,57.15
2016-07-10T09:33:33.105Z,57.24
2016-07-10T09:34:33.108Z,57.34
2016-07-10T09:35:33.102Z,57.44
2016-07-10T09:36:33.135Z,57.44
2016-07-10T09:37:33.132Z,57.54
2016-07-10T09:38:33.122Z,57.44
2016-07-10T09:39:33.140Z,56.95
2016-07-10T09:40:33.168Z,57.24
2016-07-10T09:41:33.174Z,57.15
2016-07-10T09:42:33.163Z,57.24
2016-07-10T09:43:33.169Z,57.05
2016-07-10T09:44:33.197Z,57.05
2016-07-10T09:45:33.188Z,57.24
2016-07-10T09:46:33.208Z,57.08
2016-07-10T09:47:33.203Z,57.15
2016-07-10T09:48:33.213Z,57.15
2016-07-10T09:49:33.243Z,57.24
2016-07-10T09:50:33.265Z,57.15
2016-07-10T09:51:33.243Z,57.05
2016-07-10T09:52:33.280Z,57.15
2016-07-10T09:53:33.278Z,57.08
2016-07-10T09:54:33.271Z,57.18
2016-07-10T09:55:33.282Z,57.08
2016-07-10T09:56:33.316Z,57.18
2016-07-10T09:57:33.331Z,57.05
2016-07-10T09:58:33.339Z,57.05
2016-07-10T09:59:33.323Z,56.98
2016-07-10T10:00:33.395Z,56.98
2016-07-10T10:01:33.339Z,56.98
2016-07-10T10:02:33.375Z,57.08
2016-07-10T10:03:33.385Z,56.98
2016-07-10T10:04:33.395Z,56.79
2016-07-10T10:05:33.393Z,56.6
2016-07-10T10:06:33.395Z,56.88
2016-07-10T10:07:33.403Z,56.98
2016-07-10T10:08:33.422Z,56.79
2016-07-10T10:09:33.427Z,56.6
2016-07-10T10:10:33.417Z,56.79
2016-07-10T10:11:33.440Z,56.5
2016-07-10T10:12:33.454Z,56.79
2016-07-10T10:13:33.470Z,56.5
2016-07-10T10:14:33.491Z,56.6
2016-07-10T10:15:33.464Z,56.79
2016-07-10T10:16:33.474Z,56.98
2016-07-10T10:17:33.516Z,56.98
2016-07-10T10:18:33.505Z,56.6
2016-07-10T10:19:33.506Z,56.6
2016-07-10T10:20:33.535Z,56.79
2016-07-10T10:21:33.535Z,56.88
2016-07-10T10:22:33.530Z,56.7
2016-07-10T10:23:33.543Z,56.5
2016-07-10T10:24:33.549Z,56.6
2016-07-10T10:25:33.590Z,56.5
2016-07-10T10:26:33.607Z,56.88
2016-07-10T10:27:33.612Z,56.5
2016-07-10T10:28:33.588Z,56.3
2016-07-10T10:29:33.594Z,56.6
2016-07-10T10:30:33.608Z,56.5
2016-07-10T10:31:33.615Z,56.5
2016-07-10T10:32:33.639Z,56.7
2016-07-10T10:33:33.670Z,56.7
2016-07-10T10:34:33.662Z,56.7
2016-07-10T10:35:33.655Z,56.6
2016-07-10T10:36:33.706Z,56.5
2016-07-10T10:37:33.681Z,56.5
2016-07-10T10:38:33.723Z,56.7
2016-07-10T10:39:33.706Z,56.52
2016-07-10T10:40:33.718Z,56.5
2016-07-10T10:41:33.751Z,56.52
2016-07-10T10:42:33.753Z,56.52
2016-07-10T10:43:33.730Z,56.62
2016-07-10T10:44:33.758Z,56.34
2016-07-10T10:45:33.767Z,56.43
2016-07-10T10:46:33.787Z,56.24
2016-07-10T10:47:33.799Z,56.34
2016-07-10T10:48:33.801Z,56.24
2016-07-10T10:49:33.810Z,56.43
2016-07-10T10:50:33.830Z,56.34
2016-07-10T10:51:33.831Z,56.62
2016-07-10T10:52:33.827Z,56.34
2016-07-10T10:53:33.848Z,56.52
2016-07-10T10:54:33.866Z,56.43
2016-07-10T10:55:33.843Z,56.43
2016-07-10T10:56:33.883Z,56.43
2016-07-10T10:57:33.883Z,56.72
2016-07-10T10:58:33.902Z,56.82
2016-07-10T10:59:33.898Z,56.43
2016-07-10T11:00:33.913Z,56.72
2016-07-10T11:01:33.897Z,56.34
2016-07-10T11:02:33.909Z,56.34
2016-07-10T11:03:33.944Z,56.04
2016-07-10T11:04:33.931Z,56.14
2016-07-10T11:05:33.961Z,56.04
2016-07-10T11:06:33.949Z,56.24
2016-07-10T11:07:33.980Z,56.04
2016-07-10T11:08:33.980Z,56.24
2016-07-10T11:09:33.985Z,55.85
2016-07-10T11:10:33.992Z,55.85
2016-07-10T11:11:34.641Z,56.14
2016-07-10T11:12:34.008Z,55.94
2016-07-10T11:13:34.031Z,55.85
2016-07-10T11:14:34.060Z,56.04
2016-07-10T11:15:34.058Z,55.66
2016-07-10T11:16:34.059Z,55.78
2016-07-10T11:17:34.068Z,55.68
2016-07-10T11:18:34.066Z,56.07
2016-07-10T11:19:34.087Z,55.88
2016-07-10T11:20:34.083Z,55.58
2016-07-10T11:21:34.098Z,55.98
2016-07-10T11:22:34.125Z,55.58
2016-07-10T11:23:34.109Z,55.88
2016-07-10T11:24:34.122Z,55.58
2016-07-10T11:25:34.165Z,55.68
2016-07-10T11:26:34.140Z,55.98
2016-07-10T11:27:34.165Z,55.58
2016-07-10T11:28:34.165Z,55.78
2016-07-10T11:29:34.204Z,55.88
2016-07-10T11:30:34.191Z,55.88
2016-07-10T11:31:34.220Z,55.78
2016-07-10T11:32:34.232Z,55.68
2016-07-10T11:33:34.221Z,55.49
2016-07-10T11:34:34.228Z,55.58
2016-07-10T11:35:34.253Z,55.78
2016-07-10T11:36:34.244Z,55.49
2016-07-10T11:37:34.275Z,55.78
2016-07-10T11:38:34.277Z,55.68
2016-07-10T11:39:34.316Z,55.4
2016-07-10T11:40:34.327Z,55.58
2016-07-10T11:41:34.319Z,55.58
2016-07-10T11:42:34.308Z,55.49
2016-07-10T11:43:34.308Z,55.58
2016-07-10T11:44:34.357Z,55.58
2016-07-10T11:45:34.348Z,55.58
2016-07-10T11:46:34.375Z,55.58
2016-07-10T11:47:34.358Z,55.4
2016-07-10T11:48:34.384Z,55.49
2016-07-10T11:49:34.394Z,55.2
2016-07-10T11:50:34.409Z,55.32
2016-07-10T11:51:34.409Z,55.4
2016-07-10T11:52:34.408Z,55.42
2016-07-10T11:53:34.418Z,55
2016-07-10T11:54:34.458Z,55.4
2016-07-10T11:55:34.465Z,55.52
2016-07-10T11:56:34.436Z,55.4
2016-07-10T11:57:34.470Z,55.4
2016-07-10T11:58:34.471Z,55.49
2016-07-10T11:59:34.479Z,55.4
2016-07-10T12:00:34.480Z,55
2016-07-10T12:01:34.497Z,55.49
2016-07-10T12:02:34.499Z,55.1
2016-07-10T12:03:34.515Z,55.04
2016-07-10T12:04:34.524Z,55.4
2016-07-10T12:05:34.558Z,55.49
2016-07-10T12:06:34.565Z,55.32
2016-07-10T12:07:34.579Z,55.32
2016-07-10T12:08:34.586Z,55.32
2016-07-10T12:09:34.567Z,55.32
2016-07-10T12:10:34.595Z,54.94
2016-07-10T12:11:34.582Z,55.32
2016-07-10T12:12:34.625Z,55.32
2016-07-10T12:13:34.616Z,55.04
2016-07-10T12:14:34.623Z,55.22
2016-07-10T12:15:34.656Z,55.32
2016-07-10T12:16:34.647Z,55.22
2016-07-10T12:17:34.654Z,54.94
2016-07-10T12:18:34.667Z,54.94
2016-07-10T12:19:34.699Z,55.13
2016-07-10T12:20:34.695Z,55.42
2016-07-10T12:21:34.717Z,55.04
2016-07-10T12:22:34.696Z,55.13
2016-07-10T12:23:34.738Z,55.13
2016-07-10T12:24:34.728Z,55.22
2016-07-10T12:25:34.746Z,55.13
2016-07-10T12:26:34.748Z,55.22
2016-07-10T12:27:34.770Z,55.22
2016-07-10T12:28:34.787Z,55.04
2016-07-10T12:29:34.785Z,55.04
2016-07-10T12:30:34.776Z,55.04
2016-07-10T12:31:34.818Z,54.94
2016-07-10T12:32:34.815Z,55.04
2016-07-10T12:33:34.837Z,55.04
2016-07-10T12:34:34.848Z,54.94
2016-07-10T12:35:34.845Z,55.06
2016-07-10T12:36:34.889Z,55.06
2016-07-10T12:37:34.855Z,55.13
2016-07-10T12:38:34.857Z,55.04
2016-07-10T12:39:34.897Z,55.16
2016-07-10T12:40:35.097Z,55.06
2016-07-10T12:41:34.897Z,55.06
2016-07-10T12:42:34.905Z,55.06
2016-07-10T12:43:34.923Z,55.06
2016-07-10T12:44:34.939Z,54.96
2016-07-10T12:45:34.962Z,55.06
2016-07-10T12:46:34.959Z,55.16
2016-07-10T12:47:34.953Z,55.06
2016-07-10T12:48:34.959Z,55.06
2016-07-10T12:49:34.988Z,55.06
2016-07-10T12:50:35.009Z,55.06
2016-07-10T12:51:35.022Z,55.06
2016-07-10T12:52:35.019Z,55.06
2016-07-10T12:53:35.020Z,55.06
2016-07-10T12:54:35.028Z,54.96
2016-07-10T12:55:35.057Z,54.96
2016-07-10T12:56:35.046Z,55.06